createdAt,value
2022-08-09T00:00:37.007Z,3.42
2022-08-09T00:04:06.166Z,4.15
2022-08-09T00:06:34.005Z,3.00
2022-08-09T00:09:19.422Z,3.67
2022-08-09T00:12:05.679Z,4.05
2022-08-09T00:14:54.449Z,5.00
2022-08-09T00:18:10.331Z,4.22
2022-08-09T00:20:50.113Z,4.50
2022-08-09T00:23:55.325Z,4.03
2022-08-09T00:26:39.623Z,4.60
2022-08-09T00:29:39.570Z,4.72
2022-08-09T00:32:29.792Z,6.53
2022-08-09T00:35:13.932Z,5.95
2022-08-09T00:37:58.341Z,5.03
2022-08-09T00:40:52.624Z,4.68
2022-08-09T00:44:16.793Z,4.82
2022-08-09T00:46:55.804Z,5.18
2022-08-09T00:49:43.766Z,4.55
2022-08-09T00:52:38.722Z,4.63
2022-08-09T00:55:54.264Z,3.85
2022-08-09T00:58:27.634Z,4.70
2022-08-09T01:01:16.632Z,3.92
2022-08-09T01:04:08.050Z,4.43
2022-08-09T01:07:05.349Z,3.85
2022-08-09T01:10:00.689Z,3.83
2022-08-09T01:12:52.704Z,3.67
2022-08-09T01:15:52.061Z,3.92
2022-08-09T01:18:38.599Z,4.18
2022-08-09T01:21:44.601Z,4.15
2022-08-09T01:24:50.470Z,4.68
2022-08-09T01:27:41.265Z,4.50
2022-08-09T01:30:33.652Z,3.85
2022-08-09T01:33:22.921Z,3.92
2022-08-09T01:36:10.372Z,4.22
2022-08-09T01:38:58.219Z,4.07
2022-08-09T01:41:53.556Z,4.35
2022-08-09T01:44:46.056Z,4.03
2022-08-09T01:47:32.149Z,4.65
2022-08-09T01:50:36.902Z,4.25
2022-08-09T01:53:29.033Z,4.30
2022-08-09T01:56:20.979Z,4.20
2022-08-09T01:59:10.421Z,4.82
2022-08-09T02:02:00.184Z,4.10
2022-08-09T02:04:45.883Z,5.28
2022-08-09T02:08:40.327Z,5.00
2022-08-09T02:10:40.518Z,5.20
2022-08-09T02:13:40.445Z,4.68
2022-08-09T02:16:33.879Z,5.82
2022-08-09T02:19:34.982Z,6.47
2022-08-09T02:22:35.694Z,5.68
2022-08-09T02:25:24.479Z,6.13
2022-08-09T02:28:17.920Z,6.20
2022-08-09T02:31:06.160Z,5.68
2022-08-09T02:34:06.650Z,5.47
2022-08-09T02:37:01.487Z,5.80
2022-08-09T02:39:55.368Z,5.75
2022-08-09T02:42:51.165Z,5.80
2022-08-09T02:45:41.701Z,5.00
2022-08-09T02:48:31.091Z,5.63
2022-08-09T02:51:21.754Z,6.38
2022-08-09T02:54:12.405Z,5.68
2022-08-09T02:57:01.931Z,5.70
2022-08-09T03:00:26.126Z,5.93
2022-08-09T03:03:08.604Z,6.40
2022-08-09T03:05:58.167Z,5.55
2022-08-09T03:08:45.495Z,5.50
2022-08-09T03:12:06.716Z,5.55
2022-08-09T03:14:37.109Z,5.68
2022-08-09T03:17:27.038Z,6.78
2022-08-09T03:20:12.609Z,5.85
2022-08-09T03:22:58.307Z,5.68
2022-08-09T03:26:03.583Z,5.15
2022-08-09T03:28:55.055Z,5.15
2022-08-09T03:31:42.663Z,5.78
2022-08-09T03:34:44.392Z,6.10
2022-08-09T03:37:55.814Z,6.85
2022-08-09T03:40:36.210Z,5.38
2022-08-09T03:43:20.428Z,6.82
2022-08-09T03:46:20.003Z,5.47
2022-08-09T03:49:08.827Z,5.97
2022-08-09T03:52:00.301Z,5.95
2022-08-09T03:54:50.960Z,6.90
2022-08-09T03:57:35.034Z,7.03
2022-08-09T04:00:39.081Z,7.95
2022-08-09T04:03:46.367Z,6.80
2022-08-09T04:06:30.567Z,6.55
2022-08-09T04:09:41.999Z,6.50
2022-08-09T04:12:34.889Z,6.40
2022-08-09T04:15:39.157Z,5.75
2022-08-09T04:18:25.303Z,5.90
2022-08-09T04:21:10.417Z,6.65
2022-08-09T04:23:57.671Z,4.90
2022-08-09T04:26:41.921Z,5.93
2022-08-09T04:29:25.772Z,5.80
2022-08-09T04:32:14.015Z,5.45
2022-08-09T04:35:01.059Z,9.40
2022-08-09T04:37:46.999Z,5.93
2022-08-09T04:40:48.346Z,5.40
2022-08-09T04:43:49.868Z,4.68
2022-08-09T04:46:59.204Z,4.80
2022-08-09T04:49:54.193Z,5.25
2022-08-09T04:52:40.820Z,5.13
2022-08-09T04:55:24.879Z,6.03
2022-08-09T04:58:09.284Z,4.65
2022-08-09T05:00:54.493Z,6.05
2022-08-09T05:03:43.266Z,7.30
2022-08-09T05:06:29.826Z,5.75
2022-08-09T05:09:21.599Z,7.88
2022-08-09T05:12:06.286Z,6.15
2022-08-09T05:14:50.306Z,5.30
2022-08-09T05:18:39.414Z,6.50
2022-08-09T05:20:38.919Z,6.97
2022-08-09T05:24:00.998Z,4.82
2022-08-09T05:26:36.776Z,7.30
2022-08-09T05:29:31.556Z,7.13
2022-08-09T05:32:15.909Z,6.38
2022-08-09T05:35:00.231Z,4.00
2022-08-09T05:37:47.629Z,5.47
2022-08-09T05:40:31.920Z,4.70
2022-08-09T05:43:17.225Z,4.07
2022-08-09T05:46:01.712Z,4.50
2022-08-09T05:48:48.679Z,4.80
2022-08-09T05:51:46.359Z,4.93
2022-08-09T05:54:30.587Z,3.65
2022-08-09T05:57:17.610Z,4.05
2022-08-09T06:00:07.625Z,5.25
2022-08-09T06:02:57.828Z,4.68
2022-08-09T06:05:54.834Z,3.90
2022-08-09T06:08:44.879Z,4.22
2022-08-09T06:11:40.963Z,4.15
2022-08-09T06:14:40.682Z,4.32
2022-08-09T06:17:26.159Z,4.63
2022-08-09T06:20:23.432Z,4.30
2022-08-09T06:23:08.496Z,4.00
2022-08-09T06:25:56.376Z,3.97
2022-08-09T06:28:43.299Z,4.63
2022-08-09T06:31:31.385Z,4.70
2022-08-09T06:34:26.389Z,4.82
2022-08-09T06:37:14.820Z,3.05
2022-08-09T06:40:01.268Z,3.95
2022-08-09T06:42:49.746Z,3.25
2022-08-09T06:46:07.814Z,4.18
2022-08-09T06:48:42.549Z,3.53
2022-08-09T06:51:28.489Z,3.30
2022-08-09T06:54:14.818Z,3.78
2022-08-09T06:56:59.284Z,3.25
2022-08-09T07:00:50.509Z,3.40
2022-08-09T07:02:50.796Z,3.92
2022-08-09T07:06:02.443Z,3.47
2022-08-09T07:08:40.824Z,3.38
2022-08-09T07:11:25.635Z,2.80
2022-08-09T07:14:09.830Z,3.75
2022-08-09T07:16:58.052Z,2.65
2022-08-09T07:19:42.629Z,3.55
2022-08-09T07:22:34.591Z,3.65
2022-08-09T07:25:21.925Z,4.07
2022-08-09T07:28:07.227Z,2.90
2022-08-09T07:30:54.127Z,3.00
2022-08-09T07:33:52.207Z,3.42
2022-08-09T07:36:41.012Z,3.25
2022-08-09T07:39:40.405Z,3.00
2022-08-09T07:42:32.701Z,2.35
2022-08-09T07:45:36.841Z,3.45
2022-08-09T07:48:22.537Z,3.28
2022-08-09T07:52:05.358Z,3.45
2022-08-09T07:54:19.251Z,2.78
2022-08-09T07:57:12.184Z,2.70
2022-08-09T08:00:03.447Z,2.35
2022-08-09T08:02:56.082Z,3.20
2022-08-09T08:05:53.865Z,2.50
2022-08-09T08:09:01.960Z,3.17
2022-08-09T08:12:24.303Z,2.17
2022-08-09T08:14:49.613Z,2.35
2022-08-09T08:17:55.234Z,2.75
2022-08-09T08:20:39.784Z,2.47
2022-08-09T08:23:27.340Z,2.10
2022-08-09T08:26:11.707Z,3.03
2022-08-09T08:28:56.941Z,3.17
2022-08-09T08:32:02.573Z,3.13
2022-08-09T08:34:46.665Z,3.13
2022-08-09T08:37:41.912Z,2.60
2022-08-09T08:40:40.242Z,3.05
2022-08-09T08:43:26.492Z,3.28
2022-08-09T08:46:32.420Z,2.25
2022-08-09T08:49:19.243Z,1.98
2022-08-09T08:52:10.276Z,2.22
2022-08-09T08:54:55.659Z,2.00
2022-08-09T08:57:39.578Z,1.95
2022-08-09T09:00:27.684Z,2.30
2022-08-09T09:03:23.128Z,1.92
2022-08-09T09:06:18.782Z,1.80
2022-08-09T09:09:20.990Z,2.20
2022-08-09T09:12:16.725Z,2.42
2022-08-09T09:15:02.271Z,2.63
2022-08-09T09:17:53.043Z,3.13
2022-08-09T09:20:38.826Z,2.38
2022-08-09T09:23:49.935Z,1.95
2022-08-09T09:26:55.994Z,2.35
2022-08-09T09:30:08.446Z,3.35
2022-08-09T09:33:02.763Z,2.20
2022-08-09T09:36:01.947Z,2.90
2022-08-09T09:38:50.315Z,2.67
2022-08-09T09:41:49.061Z,2.60
2022-08-09T09:44:35.844Z,1.70
2022-08-09T09:47:21.768Z,1.67
2022-08-09T09:50:14.987Z,1.92
2022-08-09T09:53:01.634Z,1.85
2022-08-09T09:56:04.563Z,1.83
2022-08-09T09:58:50.328Z,3.78
2022-08-09T10:01:40.890Z,2.08
2022-08-09T10:04:30.923Z,1.65
2022-08-09T10:07:26.903Z,1.80
2022-08-09T10:10:13.972Z,1.88
2022-08-09T10:13:02.863Z,1.92
2022-08-09T10:16:09.536Z,2.10
2022-08-09T10:18:56.908Z,1.88
2022-08-09T10:21:49.060Z,1.63
2022-08-09T10:24:35.986Z,1.90
2022-08-09T10:27:24.761Z,2.35
2022-08-09T10:34:04.828Z,1.50
2022-08-09T10:36:24.589Z,1.70
2022-08-09T10:39:15.423Z,1.88
2022-08-09T10:42:00.393Z,1.83
2022-08-09T10:44:51.456Z,1.70
2022-08-09T10:48:16.476Z,1.38
2022-08-09T10:51:13.742Z,1.98
2022-08-09T10:54:05.993Z,2.17
2022-08-09T10:57:09.314Z,2.17
2022-08-09T10:59:53.852Z,1.55
2022-08-09T11:03:11.076Z,1.70
2022-08-09T11:06:25.483Z,1.13
2022-08-09T11:09:15.756Z,1.85
2022-08-09T11:12:15.070Z,1.38
2022-08-09T11:15:03.065Z,1.75
2022-08-09T11:17:53.771Z,1.40
2022-08-09T11:20:49.716Z,2.10
2022-08-09T11:24:04.161Z,1.73
2022-08-09T11:26:54.550Z,1.20
2022-08-09T11:30:03.980Z,1.52
2022-08-09T11:32:50.896Z,1.70
2022-08-09T11:35:50.387Z,1.50
2022-08-09T11:38:41.462Z,2.25
2022-08-09T11:41:37.625Z,1.60
2022-08-09T11:44:44.709Z,1.50
2022-08-09T11:47:47.274Z,2.00
2022-08-09T11:50:54.186Z,2.08
2022-08-09T11:53:59.318Z,1.55
2022-08-09T11:56:48.141Z,1.20
2022-08-09T11:59:33.730Z,1.13
2022-08-09T12:02:37.350Z,1.38
2022-08-09T12:05:23.026Z,2.75
2022-08-09T12:08:12.529Z,2.92
2022-08-09T12:11:12.753Z,2.60
2022-08-09T12:14:09.289Z,1.30
2022-08-09T12:16:56.296Z,1.90
2022-08-09T12:19:42.810Z,1.58
2022-08-09T12:22:27.678Z,1.20
2022-08-09T12:25:15.237Z,1.85
2022-08-09T12:29:15.302Z,0.90
2022-08-09T12:31:59.163Z,1.42
2022-08-09T12:34:34.564Z,1.70
2022-08-09T12:37:23.481Z,1.38
2022-08-09T12:40:11.209Z,1.17
2022-08-09T12:42:57.012Z,1.50
2022-08-09T12:45:43.735Z,1.70
2022-08-09T12:48:44.795Z,1.52
2022-08-09T12:51:52.578Z,1.80
2022-08-09T12:56:12.475Z,1.80
2022-08-09T12:57:54.849Z,1.65
2022-08-09T13:00:47.586Z,1.38
2022-08-09T13:03:53.861Z,1.58
2022-08-09T13:06:42.957Z,1.77
2022-08-09T13:09:30.707Z,1.67
2022-08-09T13:12:14.675Z,1.70
2022-08-09T13:15:08.351Z,1.58
2022-08-09T13:18:05.224Z,1.50
2022-08-09T13:22:34.282Z,1.55
2022-08-09T13:24:17.100Z,1.50
2022-08-09T13:27:06.933Z,1.92
2022-08-09T13:30:04.003Z,1.38
2022-08-09T13:32:59.420Z,1.58
2022-08-09T13:36:39.296Z,2.13
2022-08-09T13:38:55.886Z,1.70
2022-08-09T13:41:57.643Z,1.50
2022-08-09T13:44:45.846Z,1.60
2022-08-09T13:47:48.979Z,1.73
2022-08-09T13:50:35.903Z,1.70
2022-08-09T13:53:19.892Z,1.73
2022-08-09T13:56:21.356Z,1.50
2022-08-09T13:59:09.775Z,1.70
2022-08-09T14:02:01.476Z,1.60
2022-08-09T14:04:49.374Z,1.70
2022-08-09T14:07:45.053Z,1.80
2022-08-09T14:10:46.336Z,2.00
2022-08-09T14:14:22.451Z,2.63
2022-08-09T14:16:38.675Z,1.38
2022-08-09T14:19:24.507Z,1.85
2022-08-09T14:22:09.088Z,1.73
2022-08-09T14:24:54.799Z,2.17
2022-08-09T14:27:57.150Z,2.10
2022-08-09T14:30:42.993Z,1.42
2022-08-09T14:33:27.196Z,1.70
2022-08-09T14:36:19.727Z,1.90
2022-08-09T14:39:08.735Z,2.67
2022-08-09T14:41:54.330Z,2.33
2022-08-09T14:44:48.966Z,1.90
2022-08-09T14:47:49.637Z,1.80
2022-08-09T14:50:43.085Z,1.67
2022-08-09T14:53:29.818Z,1.90
2022-08-09T14:56:15.578Z,1.73
2022-08-09T14:59:00.937Z,2.72
2022-08-09T15:01:44.830Z,2.67
2022-08-09T15:04:31.163Z,2.50
2022-08-09T15:07:15.226Z,1.90
2022-08-09T15:10:07.504Z,2.08
2022-08-09T15:12:55.530Z,1.70
2022-08-09T15:15:43.676Z,2.80
2022-08-09T15:18:27.820Z,2.58
2022-08-09T15:21:54.854Z,2.70
2022-08-09T15:24:24.198Z,2.63
2022-08-09T15:27:11.297Z,1.95
2022-08-09T15:30:59.255Z,2.70
2022-08-09T15:33:00.550Z,2.67
2022-08-09T15:36:01.644Z,2.20
2022-08-09T15:38:46.361Z,2.25
2022-08-09T15:41:32.486Z,2.15
2022-08-09T15:44:16.540Z,1.92
2022-08-09T15:47:03.826Z,2.20
2022-08-09T15:50:03.606Z,2.20
2022-08-09T15:52:54.964Z,2.10
2022-08-09T15:56:10.890Z,2.92
2022-08-09T15:58:54.524Z,2.20
2022-08-09T16:01:38.496Z,1.88
2022-08-09T16:04:23.431Z,1.75
2022-08-09T16:07:14.239Z,2.08
2022-08-09T16:10:04.870Z,1.85
2022-08-09T16:12:50.257Z,2.42
2022-08-09T16:16:04.604Z,1.80
2022-08-09T16:18:44.863Z,1.70
2022-08-09T16:21:31.798Z,2.00
2022-08-09T16:24:32.998Z,2.38
2022-08-09T16:27:18.157Z,1.98
2022-08-09T16:30:02.703Z,1.90
2022-08-09T16:33:08.162Z,2.58
2022-08-09T16:35:57.210Z,1.38
2022-08-09T16:38:44.857Z,1.70
2022-08-09T16:42:02.237Z,1.60
2022-08-09T16:44:40.771Z,2.58
2022-08-09T16:48:38.346Z,1.95
2022-08-09T16:50:33.866Z,2.78
2022-08-09T16:53:18.748Z,2.50
2022-08-09T16:56:10.281Z,2.42
2022-08-09T16:58:56.036Z,1.80
2022-08-09T17:01:43.859Z,1.50
2022-08-09T17:04:34.533Z,1.35
2022-08-09T17:08:43.600Z,2.00
2022-08-09T17:10:23.807Z,1.60
2022-08-09T17:13:07.652Z,2.00
2022-08-09T17:16:00.026Z,3.15
2022-08-09T17:18:45.926Z,3.72
2022-08-09T17:21:32.054Z,2.88
2022-08-09T17:24:20.645Z,3.22
2022-08-09T17:27:11.960Z,3.35
2022-08-09T17:29:59.089Z,3.80
2022-08-09T17:32:45.540Z,3.55
2022-08-09T17:35:31.151Z,4.18
2022-08-09T17:38:31.026Z,2.65
2022-08-09T17:41:19.452Z,2.42
2022-08-09T17:44:38.118Z,3.15
2022-08-09T17:47:10.432Z,2.67
2022-08-09T17:50:04.014Z,2.85
2022-08-09T17:52:55.072Z,3.40
2022-08-09T17:55:49.273Z,3.20
2022-08-09T17:58:33.631Z,3.35
2022-08-09T18:01:23.228Z,3.33
2022-08-09T18:04:07.665Z,3.38
2022-08-09T18:06:55.754Z,4.03
2022-08-09T18:09:41.463Z,4.22
2022-08-09T18:12:30.111Z,4.93
2022-08-09T18:15:50.299Z,3.78
2022-08-09T18:18:32.524Z,3.67
2022-08-09T18:21:23.543Z,3.25
2022-08-09T18:24:14.431Z,3.45
2022-08-09T18:27:01.034Z,4.55
2022-08-09T18:30:40.039Z,4.10
2022-08-09T18:32:54.245Z,4.03
2022-08-09T18:35:58.356Z,3.60
2022-08-09T18:38:42.629Z,2.55
2022-08-09T18:41:27.868Z,2.80
2022-08-09T18:44:13.641Z,2.17
2022-08-09T18:47:08.470Z,2.83
2022-08-09T18:50:02.842Z,2.00
2022-08-09T18:52:50.805Z,2.70
2022-08-09T18:55:56.489Z,2.35
2022-08-09T18:58:40.175Z,2.47
2022-08-09T19:01:24.132Z,2.33
2022-08-09T19:04:09.022Z,2.30
2022-08-09T19:06:52.831Z,2.10
2022-08-09T19:10:14.867Z,2.42
2022-08-09T19:12:41.369Z,2.30
2022-08-09T19:15:30.962Z,2.72
2022-08-09T19:18:16.974Z,2.50
2022-08-09T19:21:02.597Z,2.80
2022-08-09T19:24:32.489Z,2.63
2022-08-09T19:26:51.707Z,2.65
2022-08-09T19:29:38.199Z,2.70
2022-08-09T19:32:41.273Z,2.70
2022-08-09T19:35:26.718Z,3.78
2022-08-09T19:38:10.641Z,3.25
2022-08-09T19:40:54.925Z,2.85
2022-08-09T19:44:00.593Z,2.65
2022-08-09T19:46:50.478Z,2.58
2022-08-09T19:50:07.382Z,2.28
2022-08-09T19:52:51.741Z,2.83
2022-08-09T19:56:02.994Z,2.80
2022-08-09T19:58:40.488Z,2.50
2022-08-09T20:02:03.190Z,2.78
2022-08-09T20:04:47.546Z,2.78
2022-08-09T20:07:58.838Z,2.42
2022-08-09T20:10:40.812Z,2.17
2022-08-09T20:13:27.628Z,2.85
2022-08-09T20:16:37.360Z,2.80
2022-08-09T20:19:48.750Z,3.05
2022-08-09T20:22:32.247Z,2.40
2022-08-09T20:25:22.713Z,2.67
2022-08-09T20:28:06.861Z,2.55
2022-08-09T20:30:51.044Z,2.55
2022-08-09T20:33:39.071Z,2.63
2022-08-09T20:36:27.274Z,2.45
2022-08-09T20:39:29.094Z,3.08
2022-08-09T20:42:16.550Z,2.88
2022-08-09T20:45:57.474Z,3.25
2022-08-09T20:48:06.530Z,3.05
2022-08-09T20:50:57.896Z,3.22
2022-08-09T20:53:42.256Z,3.40
2022-08-09T20:56:28.383Z,3.00
2022-08-09T20:59:16.797Z,2.83
2022-08-09T21:02:01.414Z,3.10
2022-08-09T21:05:54.408Z,2.90
2022-08-09T21:07:49.194Z,2.97
2022-08-09T21:10:35.634Z,2.95
2022-08-09T21:13:21.392Z,3.60
2022-08-09T21:16:19.147Z,3.92
2022-08-09T21:20:05.069Z,4.43
2022-08-09T21:22:35.789Z,3.97
2022-08-09T21:25:37.638Z,4.18
2022-08-09T21:28:33.477Z,3.78
2022-08-09T21:31:19.895Z,3.35
2022-08-09T21:34:05.606Z,3.05
2022-08-09T21:36:55.731Z,2.63
2022-08-09T21:39:42.023Z,3.30
2022-08-09T21:42:28.650Z,2.92
2022-08-09T21:45:15.813Z,2.85
2022-08-09T21:48:01.930Z,3.33
2022-08-09T21:50:49.689Z,3.25
2022-08-09T21:53:40.653Z,3.15
2022-08-09T21:56:34.055Z,2.95
2022-08-09T21:59:28.705Z,3.25
2022-08-09T22:02:36.383Z,3.00
2022-08-09T22:05:23.403Z,3.45
2022-08-09T22:08:12.941Z,3.45
2022-08-09T22:11:50.355Z,2.67
2022-08-09T22:14:02.422Z,3.35
2022-08-09T22:16:46.368Z,3.17
2022-08-09T22:19:58.605Z,3.22
2022-08-09T22:22:37.995Z,3.17
2022-08-09T22:26:05.281Z,3.40
2022-08-09T22:28:29.657Z,3.47
2022-08-09T22:31:17.056Z,3.42
2022-08-09T22:34:00.946Z,3.28
2022-08-09T22:36:46.741Z,3.35
2022-08-09T22:39:57.781Z,3.67
2022-08-09T22:42:34.650Z,2.72
2022-08-09T22:48:14.399Z,3.38
2022-08-09T22:48:35.214Z,3.50
2022-08-09T22:51:23.942Z,3.38
2022-08-09T22:54:11.042Z,3.33
2022-08-09T22:56:57.213Z,3.58
2022-08-09T22:59:56.801Z,3.90
2022-08-09T23:02:45.010Z,4.05
2022-08-09T23:05:30.778Z,3.35
2022-08-09T23:08:34.585Z,3.60
2022-08-09T23:11:21.809Z,3.83
2022-08-09T23:14:09.862Z,2.95
2022-08-09T23:17:01.005Z,3.42
2022-08-09T23:20:07.267Z,3.83
2022-08-09T23:22:49.255Z,3.97
2022-08-09T23:25:33.349Z,3.67
2022-08-09T23:28:18.789Z,3.88
2022-08-09T23:31:03.121Z,4.47
2022-08-09T23:33:47.154Z,3.83
2022-08-09T23:36:31.500Z,3.05
2022-08-09T23:39:15.571Z,4.22
2022-08-09T23:41:59.790Z,3.80
2022-08-09T23:44:45.337Z,3.80
2022-08-09T23:47:29.322Z,3.78
2022-08-09T23:50:13.482Z,4.05
2022-08-09T23:52:57.788Z,3.50
2022-08-09T23:55:48.345Z,4.05
2022-08-09T23:58:33.885Z,3.75
